sensor_id;sensor_type;location;lat;lon;timestamp;P1;durP1;ratioP1;P2;durP2;ratioP2
77310;SDS011;66371;52.714;5.074;2022-12-28T08:26:29;12.80;;;11.57;;
77310;SDS011;66371;52.714;5.074;2022-12-28T08:29:07;10.88;;;9.95;;
77310;SDS011;66371;52.714;5.074;2022-12-28T08:34:02;8.63;;;7.80;;
77310;SDS011;66371;52.714;5.074;2022-12-28T08:36:29;8.43;;;7.75;;
77310;SDS011;66371;52.714;5.074;2022-12-28T08:38:55;8.20;;;7.70;;
77310;SDS011;66371;52.714;5.074;2022-12-28T08:41:24;7.65;;;7.05;;
77310;SDS011;66371;52.714;5.074;2022-12-28T08:43:52;7.55;;;4.40;;
77310;SDS011;66371;52.714;5.074;2022-12-28T08:46:19;13.35;;;5.85;;
77310;SDS011;66371;52.714;5.074;2022-12-28T08:48:49;11.73;;;5.32;;
77310;SDS011;66371;52.714;5.074;2022-12-28T08:51:17;8.85;;;5.53;;
77310;SDS011;66371;52.714;5.074;2022-12-28T08:53:44;11.27;;;3.90;;
77310;SDS011;66371;52.714;5.074;2022-12-28T08:56:15;4.00;;;2.85;;
77310;SDS011;66371;52.714;5.074;2022-12-28T08:58:46;4.28;;;3.15;;
77310;SDS011;66371;52.714;5.074;2022-12-28T09:01:13;3.83;;;2.97;;
77310;SDS011;66371;52.714;5.074;2022-12-28T09:03:41;4.75;;;2.30;;
77310;SDS011;66371;52.714;5.074;2022-12-28T09:06:10;7.25;;;3.30;;
77310;SDS011;66371;52.714;5.074;2022-12-28T09:08:37;3.85;;;2.90;;
77310;SDS011;66371;52.714;5.074;2022-12-28T09:11:03;4.28;;;2.30;;
77310;SDS011;66371;52.714;5.074;2022-12-28T09:13:32;4.18;;;3.10;;
77310;SDS011;66371;52.714;5.074;2022-12-28T09:15:59;5.03;;;3.35;;
77310;SDS011;66371;52.714;5.074;2022-12-28T09:18:29;5.72;;;2.60;;
77310;SDS011;66371;52.714;5.074;2022-12-28T09:20:55;9.25;;;2.28;;
77310;SDS011;66371;52.714;5.074;2022-12-28T09:23:21;10.55;;;3.13;;
77310;SDS011;66371;52.714;5.074;2022-12-28T09:25:47;5.22;;;2.92;;
77310;SDS011;66371;52.714;5.074;2022-12-28T09:28:12;7.93;;;2.15;;
77310;SDS011;66371;52.714;5.074;2022-12-28T09:30:38;2.92;;;2.55;;
77310;SDS011;66371;52.714;5.074;2022-12-28T09:33:04;5.38;;;4.97;;
77310;SDS011;66371;52.714;5.074;2022-12-28T09:35:47;8.07;;;2.67;;
77310;SDS011;66371;52.714;5.074;2022-12-28T09:38:13;2.65;;;2.45;;
77310;SDS011;66371;52.714;5.074;2022-12-28T09:40:39;3.05;;;2.38;;
77310;SDS011;66371;52.714;5.074;2022-12-28T09:43:04;4.15;;;2.15;;
77310;SDS011;66371;52.714;5.074;2022-12-28T09:45:30;6.53;;;4.93;;
77310;SDS011;66371;52.714;5.074;2022-12-28T09:47:59;6.13;;;2.35;;
77310;SDS011;66371;52.714;5.074;2022-12-28T09:50:30;5.97;;;2.90;;
77310;SDS011;66371;52.714;5.074;2022-12-28T09:53:06;7.60;;;3.53;;
77310;SDS011;66371;52.714;5.074;2022-12-28T09:55:35;8.63;;;2.75;;
77310;SDS011;66371;52.714;5.074;2022-12-28T09:58:02;5.55;;;2.85;;
77310;SDS011;66371;52.714;5.074;2022-12-28T10:00:37;7.07;;;2.70;;
77310;SDS011;66371;52.714;5.074;2022-12-28T10:03:14;8.25;;;2.80;;
77310;SDS011;66371;52.714;5.074;2022-12-28T10:05:51;6.55;;;2.03;;
77310;SDS011;66371;52.714;5.074;2022-12-28T10:08:19;6.72;;;3.38;;
77310;SDS011;66371;52.714;5.074;2022-12-28T10:10:47;9.65;;;2.72;;
77310;SDS011;66371;52.714;5.074;2022-12-28T10:13:19;6.20;;;2.85;;
77310;SDS011;66371;52.714;5.074;2022-12-28T10:15:47;8.75;;;2.05;;
77310;SDS011;66371;52.714;5.074;2022-12-28T10:18:13;6.82;;;3.10;;
77310;SDS011;66371;52.714;5.074;2022-12-28T10:20:42;10.20;;;3.15;;
77310;SDS011;66371;52.714;5.074;2022-12-28T10:23:11;9.80;;;2.90;;
77310;SDS011;66371;52.714;5.074;2022-12-28T10:25:41;9.93;;;2.90;;
77310;SDS011;66371;52.714;5.074;2022-12-28T10:28:07;5.90;;;2.58;;
77310;SDS011;66371;52.714;5.074;2022-12-28T10:30:45;12.38;;;3.10;;
77310;SDS011;66371;52.714;5.074;2022-12-28T10:33:16;3.88;;;2.22;;
77310;SDS011;66371;52.714;5.074;2022-12-28T10:35:49;10.20;;;3.45;;
77310;SDS011;66371;52.714;5.074;2022-12-28T10:38:30;7.68;;;2.47;;
77310;SDS011;66371;52.714;5.074;2022-12-28T10:40:59;5.07;;;2.72;;
77310;SDS011;66371;52.714;5.074;2022-12-28T10:43:28;5.88;;;2.08;;
77310;SDS011;66371;52.714;5.074;2022-12-28T10:45:57;5.65;;;2.58;;
77310;SDS011;66371;52.714;5.074;2022-12-28T10:48:32;5.30;;;2.80;;
77310;SDS011;66371;52.714;5.074;2022-12-28T10:51:10;4.70;;;2.13;;
77310;SDS011;66371;52.714;5.074;2022-12-28T10:53:40;4.53;;;2.53;;
77310;SDS011;66371;52.714;5.074;2022-12-28T10:58:37;8.57;;;2.08;;
77310;SDS011;66371;52.714;5.074;2022-12-28T11:03:39;4.15;;;2.25;;
77310;SDS011;66371;52.714;5.074;2022-12-28T11:06:15;4.28;;;2.20;;
77310;SDS011;66371;52.714;5.074;2022-12-28T11:08:43;8.02;;;2.55;;
77310;SDS011;66371;52.714;5.074;2022-12-28T11:11:16;7.35;;;2.90;;
77310;SDS011;66371;52.714;5.074;2022-12-28T11:13:46;5.78;;;2.58;;
77310;SDS011;66371;52.714;5.074;2022-12-28T11:16:18;5.03;;;2.65;;
77310;SDS011;66371;52.714;5.074;2022-12-28T11:18:45;6.15;;;2.17;;
77310;SDS011;66371;52.714;5.074;2022-12-28T11:21:12;7.10;;;3.65;;
77310;SDS011;66371;52.714;5.074;2022-12-28T11:23:44;5.03;;;2.28;;
77310;SDS011;66371;52.714;5.074;2022-12-28T11:26:11;9.82;;;3.28;;
77310;SDS011;66371;52.714;5.074;2022-12-28T11:28:39;11.65;;;3.55;;
77310;SDS011;66371;52.714;5.074;2022-12-28T11:31:07;10.77;;;2.95;;
77310;SDS011;66371;52.714;5.074;2022-12-28T11:33:43;12.50;;;4.60;;
77310;SDS011;66371;52.714;5.074;2022-12-28T11:36:20;4.68;;;2.58;;
77310;SDS011;66371;52.714;5.074;2022-12-28T11:38:48;5.88;;;2.95;;
77310;SDS011;66371;52.714;5.074;2022-12-28T11:43:56;5.22;;;2.30;;
77310;SDS011;66371;52.714;5.074;2022-12-28T11:51:19;10.82;;;2.55;;
77310;SDS011;66371;52.714;5.074;2022-12-28T11:54:02;6.47;;;2.97;;
77310;SDS011;66371;52.714;5.074;2022-12-28T11:59:21;6.25;;;2.55;;
77310;SDS011;66371;52.714;5.074;2022-12-28T12:01:50;6.35;;;3.03;;
77310;SDS011;66371;52.714;5.074;2022-12-28T12:04:18;6.05;;;2.72;;
77310;SDS011;66371;52.714;5.074;2022-12-28T12:11:47;6.72;;;2.92;;
77310;SDS011;66371;52.714;5.074;2022-12-28T12:14:15;5.88;;;2.47;;
77310;SDS011;66371;52.714;5.074;2022-12-28T12:17:04;3.33;;;2.00;;
77310;SDS011;66371;52.714;5.074;2022-12-28T12:19:37;5.50;;;2.80;;
77310;SDS011;66371;52.714;5.074;2022-12-28T12:22:14;4.88;;;2.42;;
77310;SDS011;66371;52.714;5.074;2022-12-28T12:24:47;5.28;;;4.65;;
77310;SDS011;66371;52.714;5.074;2022-12-28T12:27:48;5.38;;;2.25;;
77310;SDS011;66371;52.714;5.074;2022-12-28T12:32:51;3.72;;;2.33;;
77310;SDS011;66371;52.714;5.074;2022-12-28T12:35:22;6.03;;;2.30;;
77310;SDS011;66371;52.714;5.074;2022-12-28T12:38:04;7.38;;;2.85;;
77310;SDS011;66371;52.714;5.074;2022-12-28T12:40:49;5.70;;;2.90;;
77310;SDS011;66371;52.714;5.074;2022-12-28T12:44:08;4.70;;;2.42;;
77310;SDS011;66371;52.714;5.074;2022-12-28T13:05:14;3.47;;;2.78;;
77310;SDS011;66371;52.714;5.074;2022-12-28T13:07:43;4.45;;;2.22;;
77310;SDS011;66371;52.714;5.074;2022-12-28T13:10:13;2.50;;;1.88;;
77310;SDS011;66371;52.714;5.074;2022-12-28T13:12:52;6.82;;;2.33;;
77310;SDS011;66371;52.714;5.074;2022-12-28T13:15:20;6.65;;;2.60;;
77310;SDS011;66371;52.714;5.074;2022-12-28T13:18:02;7.72;;;2.28;;
77310;SDS011;66371;52.714;5.074;2022-12-28T13:20:29;5.15;;;2.63;;
77310;SDS011;66371;52.714;5.074;2022-12-28T13:22:55;6.57;;;2.15;;
77310;SDS011;66371;52.714;5.074;2022-12-28T13:25:29;4.55;;;2.13;;
77310;SDS011;66371;52.714;5.074;2022-12-28T13:27:56;7.35;;;1.85;;
77310;SDS011;66371;52.714;5.074;2022-12-28T13:30:24;5.00;;;3.08;;
77310;SDS011;66371;52.714;5.074;2022-12-28T13:32:51;5.68;;;1.75;;
77310;SDS011;66371;52.714;5.074;2022-12-28T13:35:20;4.63;;;2.35;;
77310;SDS011;66371;52.714;5.074;2022-12-28T13:40:39;3.88;;;2.65;;
77310;SDS011;66371;52.714;5.074;2022-12-28T13:46:05;6.20;;;1.63;;
77310;SDS011;66371;52.714;5.074;2022-12-28T13:48:36;4.53;;;2.30;;
77310;SDS011;66371;52.714;5.074;2022-12-28T13:51:10;2.63;;;2.25;;
77310;SDS011;66371;52.714;5.074;2022-12-28T13:53:41;4.53;;;2.47;;
77310;SDS011;66371;52.714;5.074;2022-12-28T13:56:12;4.30;;;3.78;;
77310;SDS011;66371;52.714;5.074;2022-12-28T13:58:50;3.85;;;2.17;;
77310;SDS011;66371;52.714;5.074;2022-12-28T14:01:20;3.65;;;1.98;;
77310;SDS011;66371;52.714;5.074;2022-12-28T14:03:48;4.00;;;1.77;;
77310;SDS011;66371;52.714;5.074;2022-12-28T14:06:14;3.13;;;2.63;;
77310;SDS011;66371;52.714;5.074;2022-12-28T14:08:42;5.80;;;2.85;;
77310;SDS011;66371;52.714;5.074;2022-12-28T14:11:08;4.43;;;2.10;;
77310;SDS011;66371;52.714;5.074;2022-12-28T14:13:35;2.97;;;1.73;;
77310;SDS011;66371;52.714;5.074;2022-12-28T14:16:02;2.50;;;1.85;;
77310;SDS011;66371;52.714;5.074;2022-12-28T14:18:29;3.13;;;2.35;;
77310;SDS011;66371;52.714;5.074;2022-12-28T14:20:59;3.63;;;2.70;;
77310;SDS011;66371;52.714;5.074;2022-12-28T14:23:29;4.60;;;4.03;;
77310;SDS011;66371;52.714;5.074;2022-12-28T14:25:59;4.85;;;2.50;;
77310;SDS011;66371;52.714;5.074;2022-12-28T14:28:35;4.53;;;2.88;;
77310;SDS011;66371;52.714;5.074;2022-12-28T14:31:05;5.30;;;3.88;;
77310;SDS011;66371;52.714;5.074;2022-12-28T14:33:51;4.22;;;1.98;;
77310;SDS011;66371;52.714;5.074;2022-12-28T14:36:23;4.55;;;3.75;;
77310;SDS011;66371;52.714;5.074;2022-12-28T14:38:53;8.25;;;2.08;;
77310;SDS011;66371;52.714;5.074;2022-12-28T14:41:40;4.53;;;2.35;;
77310;SDS011;66371;52.714;5.074;2022-12-28T14:44:18;4.85;;;2.63;;
77310;SDS011;66371;52.714;5.074;2022-12-28T14:46:55;6.07;;;4.00;;
77310;SDS011;66371;52.714;5.074;2022-12-28T14:51:52;2.75;;;2.00;;
77310;SDS011;66371;52.714;5.074;2022-12-28T14:54:19;5.50;;;2.75;;
77310;SDS011;66371;52.714;5.074;2022-12-28T14:56:57;5.72;;;2.28;;
77310;SDS011;66371;52.714;5.074;2022-12-28T14:59:28;6.28;;;4.47;;
77310;SDS011;66371;52.714;5.074;2022-12-28T15:01:54;7.43;;;2.17;;
77310;SDS011;66371;52.714;5.074;2022-12-28T15:06:48;4.35;;;2.40;;
77310;SDS011;66371;52.714;5.074;2022-12-28T15:09:13;3.87;;;3.47;;
77310;SDS011;66371;52.714;5.074;2022-12-28T15:11:40;4.00;;;3.67;;
77310;SDS011;66371;52.714;5.074;2022-12-28T15:14:06;2.97;;;2.63;;
77310;SDS011;66371;52.714;5.074;2022-12-28T15:16:31;3.13;;;1.90;;
77310;SDS011;66371;52.714;5.074;2022-12-28T15:18:57;4.28;;;3.88;;
77310;SDS011;66371;52.714;5.074;2022-12-28T15:21:22;6.25;;;2.58;;
77310;SDS011;66371;52.714;5.074;2022-12-28T15:23:52;3.58;;;2.13;;
77310;SDS011;66371;52.714;5.074;2022-12-28T15:26:18;3.97;;;1.73;;
77310;SDS011;66371;52.714;5.074;2022-12-28T15:28:45;5.40;;;2.38;;
77310;SDS011;66371;52.714;5.074;2022-12-28T15:31:12;6.78;;;2.70;;
77310;SDS011;66371;52.714;5.074;2022-12-28T15:33:40;4.35;;;4.05;;
77310;SDS011;66371;52.714;5.074;2022-12-28T15:36:10;7.53;;;3.45;;
77310;SDS011;66371;52.714;5.074;2022-12-28T15:38:40;2.88;;;1.88;;
77310;SDS011;66371;52.714;5.074;2022-12-28T15:41:06;2.97;;;2.40;;
77310;SDS011;66371;52.714;5.074;2022-12-28T15:43:51;6.57;;;4.25;;
77310;SDS011;66371;52.714;5.074;2022-12-28T15:46:17;14.18;;;2.15;;
77310;SDS011;66371;52.714;5.074;2022-12-28T15:48:43;4.47;;;2.45;;
77310;SDS011;66371;52.714;5.074;2022-12-28T15:51:08;4.75;;;2.38;;
77310;SDS011;66371;52.714;5.074;2022-12-28T15:53:34;6.95;;;2.53;;
77310;SDS011;66371;52.714;5.074;2022-12-28T15:55:59;10.17;;;5.23;;
77310;SDS011;66371;52.714;5.074;2022-12-28T15:58:25;7.78;;;5.10;;
77310;SDS011;66371;52.714;5.074;2022-12-28T16:00:52;7.32;;;4.00;;
77310;SDS011;66371;52.714;5.074;2022-12-28T16:03:17;6.28;;;3.72;;
77310;SDS011;66371;52.714;5.074;2022-12-28T16:05:43;5.18;;;2.20;;
77310;SDS011;66371;52.714;5.074;2022-12-28T16:08:08;4.10;;;3.70;;
77310;SDS011;66371;52.714;5.074;2022-12-28T16:10:33;5.33;;;3.87;;
77310;SDS011;66371;52.714;5.074;2022-12-28T16:12:59;6.68;;;4.57;;
77310;SDS011;66371;52.714;5.074;2022-12-28T16:15:24;6.13;;;5.47;;
77310;SDS011;66371;52.714;5.074;2022-12-28T16:17:50;3.08;;;2.70;;
77310;SDS011;66371;52.714;5.074;2022-12-28T16:20:16;4.10;;;2.80;;
77310;SDS011;66371;52.714;5.074;2022-12-28T16:22:42;7.70;;;2.78;;
77310;SDS011;66371;52.714;5.074;2022-12-28T16:25:08;5.55;;;4.93;;
77310;SDS011;66371;52.714;5.074;2022-12-28T16:27:34;7.18;;;4.00;;
77310;SDS011;66371;52.714;5.074;2022-12-28T16:30:00;8.05;;;2.25;;
77310;SDS011;66371;52.714;5.074;2022-12-28T16:32:25;6.28;;;2.67;;
77310;SDS011;66371;52.714;5.074;2022-12-28T16:34:55;2.95;;;2.50;;
77310;SDS011;66371;52.714;5.074;2022-12-28T16:37:20;2.42;;;1.80;;
77310;SDS011;66371;52.714;5.074;2022-12-28T16:39:46;6.47;;;2.60;;
77310;SDS011;66371;52.714;5.074;2022-12-28T16:42:12;2.72;;;2.33;;
77310;SDS011;66371;52.714;5.074;2022-12-28T16:44:37;4.47;;;2.70;;
77310;SDS011;66371;52.714;5.074;2022-12-28T16:47:03;4.88;;;2.42;;
77310;SDS011;66371;52.714;5.074;2022-12-28T16:49:29;4.88;;;2.97;;
77310;SDS011;66371;52.714;5.074;2022-12-28T16:51:55;6.78;;;2.88;;
77310;SDS011;66371;52.714;5.074;2022-12-28T16:54:21;3.92;;;2.55;;
77310;SDS011;66371;52.714;5.074;2022-12-28T16:56:48;5.07;;;2.20;;
77310;SDS011;66371;52.714;5.074;2022-12-28T16:59:16;6.18;;;3.45;;
77310;SDS011;66371;52.714;5.074;2022-12-28T17:01:43;3.95;;;2.40;;
77310;SDS011;66371;52.714;5.074;2022-12-28T17:04:09;3.17;;;1.95;;
77310;SDS011;66371;52.714;5.074;2022-12-28T17:06:35;5.72;;;2.58;;
77310;SDS011;66371;52.714;5.074;2022-12-28T17:09:01;5.22;;;1.65;;
77310;SDS011;66371;52.714;5.074;2022-12-28T17:11:27;5.72;;;2.80;;
77310;SDS011;66371;52.714;5.074;2022-12-28T17:13:52;3.28;;;2.08;;
77310;SDS011;66371;52.714;5.074;2022-12-28T17:16:24;3.85;;;2.75;;
77310;SDS011;66371;52.714;5.074;2022-12-28T17:18:49;6.90;;;2.10;;
77310;SDS011;66371;52.714;5.074;2022-12-28T17:21:15;6.18;;;3.13;;
77310;SDS011;66371;52.714;5.074;2022-12-28T17:23:40;5.93;;;2.20;;
77310;SDS011;66371;52.714;5.074;2022-12-28T17:26:06;3.97;;;2.20;;
77310;SDS011;66371;52.714;5.074;2022-12-28T17:28:32;5.90;;;2.30;;
77310;SDS011;66371;52.714;5.074;2022-12-28T17:31:07;7.60;;;2.75;;
77310;SDS011;66371;52.714;5.074;2022-12-28T17:33:38;5.20;;;3.35;;
77310;SDS011;66371;52.714;5.074;2022-12-28T17:36:07;4.20;;;2.72;;
77310;SDS011;66371;52.714;5.074;2022-12-28T17:38:33;6.07;;;2.88;;
77310;SDS011;66371;52.714;5.074;2022-12-28T17:40:58;4.30;;;3.05;;
77310;SDS011;66371;52.714;5.074;2022-12-28T17:43:24;4.75;;;4.07;;
77310;SDS011;66371;52.714;5.074;2022-12-28T17:45:49;6.78;;;3.78;;
77310;SDS011;66371;52.714;5.074;2022-12-28T17:48:15;2.20;;;2.00;;
77310;SDS011;66371;52.714;5.074;2022-12-28T17:50:41;5.03;;;2.85;;
77310;SDS011;66371;52.714;5.074;2022-12-28T17:53:07;4.35;;;2.40;;
77310;SDS011;66371;52.714;5.074;2022-12-28T17:55:34;8.23;;;2.42;;
77310;SDS011;66371;52.714;5.074;2022-12-28T17:58:00;8.48;;;2.35;;
77310;SDS011;66371;52.714;5.074;2022-12-28T18:00:25;6.63;;;2.13;;
77310;SDS011;66371;52.714;5.074;2022-12-28T18:02:51;3.80;;;3.22;;
77310;SDS011;66371;52.714;5.074;2022-12-28T18:05:16;4.50;;;2.45;;
77310;SDS011;66371;52.714;5.074;2022-12-28T18:07:42;4.20;;;2.13;;
77310;SDS011;66371;52.714;5.074;2022-12-28T18:10:07;6.13;;;2.28;;
77310;SDS011;66371;52.714;5.074;2022-12-28T18:12:33;16.95;;;2.88;;
77310;SDS011;66371;52.714;5.074;2022-12-28T18:14:59;4.72;;;2.53;;
77310;SDS011;66371;52.714;5.074;2022-12-28T18:17:24;5.10;;;2.17;;
77310;SDS011;66371;52.714;5.074;2022-12-28T18:19:49;5.68;;;2.47;;
77310;SDS011;66371;52.714;5.074;2022-12-28T18:22:17;5.35;;;2.00;;
77310;SDS011;66371;52.714;5.074;2022-12-28T18:24:44;4.38;;;2.22;;
77310;SDS011;66371;52.714;5.074;2022-12-28T18:27:10;5.60;;;1.50;;
77310;SDS011;66371;52.714;5.074;2022-12-28T18:29:35;9.93;;;2.33;;
77310;SDS011;66371;52.714;5.074;2022-12-28T18:32:01;6.28;;;2.40;;
77310;SDS011;66371;52.714;5.074;2022-12-28T18:34:26;8.27;;;2.30;;
77310;SDS011;66371;52.714;5.074;2022-12-28T18:36:52;4.13;;;1.60;;
77310;SDS011;66371;52.714;5.074;2022-12-28T18:39:18;3.70;;;2.47;;
77310;SDS011;66371;52.714;5.074;2022-12-28T18:41:43;3.05;;;2.50;;
77310;SDS011;66371;52.714;5.074;2022-12-28T18:44:09;4.13;;;2.40;;
77310;SDS011;66371;52.714;5.074;2022-12-28T18:46:35;5.28;;;2.38;;
77310;SDS011;66371;52.714;5.074;2022-12-28T18:49:00;6.55;;;2.30;;
77310;SDS011;66371;52.714;5.074;2022-12-28T18:51:26;7.88;;;2.63;;
77310;SDS011;66371;52.714;5.074;2022-12-28T18:53:52;3.80;;;2.58;;
77310;SDS011;66371;52.714;5.074;2022-12-28T18:56:18;5.20;;;2.33;;
77310;SDS011;66371;52.714;5.074;2022-12-28T18:58:49;3.97;;;2.05;;
77310;SDS011;66371;52.714;5.074;2022-12-28T19:01:17;4.35;;;2.08;;
77310;SDS011;66371;52.714;5.074;2022-12-28T19:03:46;6.38;;;2.45;;
77310;SDS011;66371;52.714;5.074;2022-12-28T19:06:16;3.78;;;1.85;;
77310;SDS011;66371;52.714;5.074;2022-12-28T19:08:42;3.78;;;2.20;;
77310;SDS011;66371;52.714;5.074;2022-12-28T19:11:08;3.15;;;2.28;;
77310;SDS011;66371;52.714;5.074;2022-12-28T19:13:35;4.05;;;2.88;;
77310;SDS011;66371;52.714;5.074;2022-12-28T19:16:02;3.60;;;2.83;;
77310;SDS011;66371;52.714;5.074;2022-12-28T19:18:28;3.55;;;1.95;;
77310;SDS011;66371;52.714;5.074;2022-12-28T19:20:57;5.25;;;3.50;;
77310;SDS011;66371;52.714;5.074;2022-12-28T19:23:38;2.83;;;2.40;;
77310;SDS011;66371;52.714;5.074;2022-12-28T19:26:03;3.95;;;2.85;;
77310;SDS011;66371;52.714;5.074;2022-12-28T19:28:29;3.30;;;2.08;;
77310;SDS011;66371;52.714;5.074;2022-12-28T19:30:55;2.95;;;1.85;;
77310;SDS011;66371;52.714;5.074;2022-12-28T19:33:20;3.13;;;1.60;;
77310;SDS011;66371;52.714;5.074;2022-12-28T19:35:46;6.80;;;2.38;;
77310;SDS011;66371;52.714;5.074;2022-12-28T19:38:12;3.80;;;2.17;;
77310;SDS011;66371;52.714;5.074;2022-12-28T19:40:37;4.43;;;4.13;;
77310;SDS011;66371;52.714;5.074;2022-12-28T19:43:03;2.88;;;1.73;;
77310;SDS011;66371;52.714;5.074;2022-12-28T19:45:28;2.17;;;1.48;;
77310;SDS011;66371;52.714;5.074;2022-12-28T19:47:54;5.15;;;2.15;;
77310;SDS011;66371;52.714;5.074;2022-12-28T19:50:19;3.20;;;2.05;;
77310;SDS011;66371;52.714;5.074;2022-12-28T19:52:45;4.47;;;2.65;;
77310;SDS011;66371;52.714;5.074;2022-12-28T19:55:10;4.55;;;2.38;;
77310;SDS011;66371;52.714;5.074;2022-12-28T19:57:36;2.95;;;1.88;;
77310;SDS011;66371;52.714;5.074;2022-12-28T20:00:03;4.15;;;2.22;;
77310;SDS011;66371;52.714;5.074;2022-12-28T20:02:30;2.88;;;1.85;;
77310;SDS011;66371;52.714;5.074;2022-12-28T20:04:56;4.32;;;1.80;;
77310;SDS011;66371;52.714;5.074;2022-12-28T20:07:21;5.50;;;3.78;;
77310;SDS011;66371;52.714;5.074;2022-12-28T20:09:50;5.53;;;1.80;;
77310;SDS011;66371;52.714;5.074;2022-12-28T20:12:16;2.63;;;1.90;;
77310;SDS011;66371;52.714;5.074;2022-12-28T20:14:47;3.63;;;3.15;;
77310;SDS011;66371;52.714;5.074;2022-12-28T20:17:12;5.30;;;4.50;;
77310;SDS011;66371;52.714;5.074;2022-12-28T20:19:38;6.18;;;4.50;;
77310;SDS011;66371;52.714;5.074;2022-12-28T20:22:03;5.68;;;3.83;;
77310;SDS011;66371;52.714;5.074;2022-12-28T20:24:29;3.17;;;2.58;;
77310;SDS011;66371;52.714;5.074;2022-12-28T20:26:54;4.60;;;3.75;;
77310;SDS011;66371;52.714;5.074;2022-12-28T20:29:21;6.55;;;3.88;;
77310;SDS011;66371;52.714;5.074;2022-12-28T20:31:50;3.95;;;2.75;;
77310;SDS011;66371;52.714;5.074;2022-12-28T20:34:15;4.05;;;3.65;;
77310;SDS011;66371;52.714;5.074;2022-12-28T20:36:41;4.00;;;2.35;;
77310;SDS011;66371;52.714;5.074;2022-12-28T20:39:06;5.78;;;3.53;;
77310;SDS011;66371;52.714;5.074;2022-12-28T20:41:32;5.20;;;3.47;;
77310;SDS011;66371;52.714;5.074;2022-12-28T20:44:24;3.45;;;2.67;;
77310;SDS011;66371;52.714;5.074;2022-12-28T20:46:52;7.30;;;2.85;;
77310;SDS011;66371;52.714;5.074;2022-12-28T20:49:18;4.18;;;3.70;;
77310;SDS011;66371;52.714;5.074;2022-12-28T20:51:44;4.10;;;2.50;;
77310;SDS011;66371;52.714;5.074;2022-12-28T20:54:13;4.70;;;4.30;;
77310;SDS011;66371;52.714;5.074;2022-12-28T20:56:39;5.50;;;3.45;;
77310;SDS011;66371;52.714;5.074;2022-12-28T20:59:05;3.97;;;3.67;;
77310;SDS011;66371;52.714;5.074;2022-12-28T21:01:32;4.43;;;2.30;;
77310;SDS011;66371;52.714;5.074;2022-12-28T21:03:57;3.88;;;1.50;;
77310;SDS011;66371;52.714;5.074;2022-12-28T21:06:23;2.20;;;1.83;;
77310;SDS011;66371;52.714;5.074;2022-12-28T21:08:48;4.13;;;3.42;;
77310;SDS011;66371;52.714;5.074;2022-12-28T21:11:14;3.95;;;3.00;;
77310;SDS011;66371;52.714;5.074;2022-12-28T21:13:39;2.97;;;1.77;;
77310;SDS011;66371;52.714;5.074;2022-12-28T21:16:06;4.03;;;3.70;;
77310;SDS011;66371;52.714;5.074;2022-12-28T21:18:32;2.72;;;1.77;;
77310;SDS011;66371;52.714;5.074;2022-12-28T21:20:57;3.97;;;2.25;;
77310;SDS011;66371;52.714;5.074;2022-12-28T21:23:24;2.15;;;1.92;;
77310;SDS011;66371;52.714;5.074;2022-12-28T21:25:51;2.33;;;1.70;;
77310;SDS011;66371;52.714;5.074;2022-12-28T21:28:16;3.13;;;2.08;;
77310;SDS011;66371;52.714;5.074;2022-12-28T21:30:42;4.15;;;2.38;;
77310;SDS011;66371;52.714;5.074;2022-12-28T21:33:07;3.05;;;2.15;;
77310;SDS011;66371;52.714;5.074;2022-12-28T21:35:33;2.47;;;2.10;;
77310;SDS011;66371;52.714;5.074;2022-12-28T21:37:58;3.90;;;3.60;;
77310;SDS011;66371;52.714;5.074;2022-12-28T21:40:23;3.28;;;2.95;;
77310;SDS011;66371;52.714;5.074;2022-12-28T21:42:49;2.60;;;1.77;;
77310;SDS011;66371;52.714;5.074;2022-12-28T21:45:14;4.72;;;2.30;;
77310;SDS011;66371;52.714;5.074;2022-12-28T21:47:40;3.90;;;3.60;;
77310;SDS011;66371;52.714;5.074;2022-12-28T21:50:07;2.97;;;2.28;;
77310;SDS011;66371;52.714;5.074;2022-12-28T21:52:35;2.33;;;1.95;;
77310;SDS011;66371;52.714;5.074;2022-12-28T21:55:01;3.65;;;2.10;;
77310;SDS011;66371;52.714;5.074;2022-12-28T21:57:51;3.10;;;2.15;;
77310;SDS011;66371;52.714;5.074;2022-12-28T22:00:18;9.63;;;2.72;;
77310;SDS011;66371;52.714;5.074;2022-12-28T22:03:03;16.50;;;6.28;;
77310;SDS011;66371;52.714;5.074;2022-12-28T22:05:47;19.67;;;6.15;;
77310;SDS011;66371;52.714;5.074;2022-12-28T22:08:15;17.45;;;4.82;;
77310;SDS011;66371;52.714;5.074;2022-12-28T22:13:44;16.27;;;6.45;;
77310;SDS011;66371;52.714;5.074;2022-12-28T22:16:09;15.00;;;4.32;;
77310;SDS011;66371;52.714;5.074;2022-12-28T22:18:34;18.27;;;4.80;;
77310;SDS011;66371;52.714;5.074;2022-12-28T22:21:01;18.27;;;5.25;;
77310;SDS011;66371;52.714;5.074;2022-12-28T22:23:26;18.63;;;5.22;;
77310;SDS011;66371;52.714;5.074;2022-12-28T22:25:52;12.85;;;4.30;;
77310;SDS011;66371;52.714;5.074;2022-12-28T22:28:17;12.73;;;5.20;;
77310;SDS011;66371;52.714;5.074;2022-12-28T22:30:42;12.07;;;4.07;;
77310;SDS011;66371;52.714;5.074;2022-12-28T22:33:08;9.80;;;3.73;;
77310;SDS011;66371;52.714;5.074;2022-12-28T22:35:33;12.32;;;4.80;;
77310;SDS011;66371;52.714;5.074;2022-12-28T22:37:59;12.43;;;4.63;;
77310;SDS011;66371;52.714;5.074;2022-12-28T22:40:25;13.38;;;5.60;;
77310;SDS011;66371;52.714;5.074;2022-12-28T22:42:50;10.75;;;3.85;;
77310;SDS011;66371;52.714;5.074;2022-12-28T22:45:17;7.88;;;3.42;;
77310;SDS011;66371;52.714;5.074;2022-12-28T22:47:45;8.88;;;3.55;;
77310;SDS011;66371;52.714;5.074;2022-12-28T22:50:11;9.55;;;3.85;;
77310;SDS011;66371;52.714;5.074;2022-12-28T22:52:39;8.23;;;3.13;;
77310;SDS011;66371;52.714;5.074;2022-12-28T22:55:05;8.15;;;3.53;;
77310;SDS011;66371;52.714;5.074;2022-12-28T22:57:31;6.38;;;2.95;;
77310;SDS011;66371;52.714;5.074;2022-12-28T22:59:57;6.68;;;3.05;;
77310;SDS011;66371;52.714;5.074;2022-12-28T23:02:22;4.68;;;2.70;;
77310;SDS011;66371;52.714;5.074;2022-12-28T23:04:48;8.30;;;3.30;;
77310;SDS011;66371;52.714;5.074;2022-12-28T23:07:13;6.80;;;2.77;;
77310;SDS011;66371;52.714;5.074;2022-12-28T23:09:39;6.43;;;2.63;;
77310;SDS011;66371;52.714;5.074;2022-12-28T23:12:04;5.03;;;4.43;;
77310;SDS011;66371;52.714;5.074;2022-12-28T23:14:30;7.30;;;2.35;;
77310;SDS011;66371;52.714;5.074;2022-12-28T23:17:14;5.35;;;2.70;;
77310;SDS011;66371;52.714;5.074;2022-12-28T23:19:41;5.88;;;2.72;;
77310;SDS011;66371;52.714;5.074;2022-12-28T23:22:26;3.40;;;2.15;;
77310;SDS011;66371;52.714;5.074;2022-12-28T23:25:13;5.15;;;2.38;;
77310;SDS011;66371;52.714;5.074;2022-12-28T23:28:03;5.78;;;4.82;;
77310;SDS011;66371;52.714;5.074;2022-12-28T23:30:32;5.25;;;2.72;;
77310;SDS011;66371;52.714;5.074;2022-12-28T23:32:59;4.63;;;2.67;;
77310;SDS011;66371;52.714;5.074;2022-12-28T23:35:25;4.53;;;2.47;;
77310;SDS011;66371;52.714;5.074;2022-12-28T23:37:51;3.67;;;2.22;;
77310;SDS011;66371;52.714;5.074;2022-12-28T23:40:17;4.35;;;2.28;;
77310;SDS011;66371;52.714;5.074;2022-12-28T23:42:45;4.97;;;3.17;;
77310;SDS011;66371;52.714;5.074;2022-12-28T23:45:12;5.65;;;2.33;;
77310;SDS011;66371;52.714;5.074;2022-12-28T23:47:40;4.13;;;2.28;;
77310;SDS011;66371;52.714;5.074;2022-12-28T23:50:07;5.78;;;3.17;;
77310;SDS011;66371;52.714;5.074;2022-12-28T23:52:32;4.13;;;2.28;;
77310;SDS011;66371;52.714;5.074;2022-12-28T23:54:58;3.55;;;1.83;;
77310;SDS011;66371;52.714;5.074;2022-12-28T23:57:23;7.00;;;3.38;;
77310;SDS011;66371;52.714;5.074;2022-12-28T23:59:49;3.15;;;2.00;;
